Time;durP1;ratioP1;P1;durP2;ratioP2;P2;SDS_P1;SDS_P2;PMS_P1;PMS_P2;Temp;Humidity;BMP_temperature;BMP_pressure;BME280_temperature;BME280_humidity;BME280_pressure;Samples;Min_cycle;Max_cycle;Signal;HPM_P1;HPM_P2
2021/01/03 00:01:53;;;;;;;46.85;23.83;;;0.90;99.90;;;;;;5033879;28;20108;-78
2021/01/03 00:04:19;;;;;;;41.38;22.27;;;1.00;99.90;;;;;;5033676;28;20022;-78
2021/01/03 00:06:45;;;;;;;44.92;22.52;;;1.00;99.90;;;;;;5015415;28;20057;-78
2021/01/03 00:09:11;;;;;;;49.30;25.77;;;1.10;99.90;;;;;;5013855;28;20029;-78
2021/01/03 00:11:37;;;;;;;46.13;24.30;;;1.20;99.90;;;;;;5012751;28;20124;-78
2021/01/03 00:14:05;;;;;;;46.72;25.15;;;1.20;99.90;;;;;;5012435;28;20029;-78
2021/01/03 00:16:30;;;;;;;41.58;23.38;;;1.20;99.90;;;;;;5025669;28;20025;-78
2021/01/03 00:18:56;;;;;;;46.58;25.02;;;1.20;99.90;;;;;;5033508;28;20025;-78
2021/01/03 00:21:21;;;;;;;42.30;24.23;;;1.30;99.90;;;;;;5033623;28;20033;-78
2021/01/03 00:23:47;;;;;;;47.15;24.05;;;1.30;99.90;;;;;;5033279;28;20029;-78
2021/01/03 00:26:12;;;;;;;51.20;26.63;;;1.40;99.90;;;;;;5017967;28;20022;-78
2021/01/03 00:28:38;;;;;;;49.63;26.35;;;1.40;99.90;;;;;;5012601;28;20115;-78
2021/01/03 00:31:04;;;;;;;53.22;26.25;;;1.40;99.90;;;;;;5013552;28;20044;-78
2021/01/03 00:33:29;;;;;;;44.60;24.40;;;1.40;99.90;;;;;;5012364;28;20025;-78
2021/01/03 00:35:55;;;;;;;45.17;24.50;;;1.40;99.90;;;;;;5022894;28;20029;-78
2021/01/03 00:38:20;;;;;;;60.53;27.55;;;1.50;99.90;;;;;;5033066;28;20029;-78
2021/01/03 00:40:46;;;;;;;44.20;23.85;;;1.50;99.90;;;;;;5032947;28;20489;-78
2021/01/03 00:43:13;;;;;;;48.65;24.83;;;1.50;99.90;;;;;;5033097;28;20048;-78
2021/01/03 00:45:39;;;;;;;42.08;22.67;;;1.50;99.90;;;;;;5027827;28;20029;-78
2021/01/03 00:48:06;;;;;;;50.17;25.48;;;1.50;99.90;;;;;;5013273;28;20041;-78
2021/01/03 00:50:32;;;;;;;44.53;22.65;;;1.40;99.90;;;;;;5013283;28;20026;-78
2021/01/03 00:52:58;;;;;;;41.50;23.48;;;1.40;99.90;;;;;;5011898;28;20037;-78
2021/01/03 00:55:24;;;;;;;43.53;25.15;;;1.40;99.90;;;;;;5021037;28;20034;-78
2021/01/03 00:57:50;;;;;;;42.40;24.10;;;1.40;99.90;;;;;;5032877;28;20026;-78
2021/01/03 01:00:20;;;;;;;44.40;23.85;;;1.40;99.90;;;;;;5031558;28;20393;-78
2021/01/03 01:02:46;;;;;;;44.75;22.88;;;1.30;99.90;;;;;;5032818;28;20021;-78
2021/01/03 01:05:12;;;;;;;55.63;24.77;;;1.30;99.90;;;;;;5036238;28;20028;-78
2021/01/03 01:07:38;;;;;;;46.47;24.90;;;1.30;99.90;;;;;;5051208;28;20071;-79
2021/01/03 01:10:10;;;;;;;47.22;24.27;;;1.30;99.90;;;;;;5051038;28;20029;-78
2021/01/03 01:12:36;;;;;;;49.58;25.83;;;1.30;99.90;;;;;;5051250;28;20028;-78
2021/01/03 01:15:08;;;;;;;47.10;24.65;;;1.30;99.90;;;;;;5051780;28;20025;-78
2021/01/03 01:17:33;;;;;;;45.08;25.05;;;1.40;99.90;;;;;;5029214;28;20035;-78
2021/01/03 01:19:59;;;;;;;45.88;24.10;;;1.30;99.90;;;;;;5031056;28;20034;-78
2021/01/03 01:22:24;;;;;;;44.67;24.40;;;1.30;99.90;;;;;;5032541;28;20132;-78
2021/01/03 01:24:50;;;;;;;44.40;24.67;;;1.30;99.90;;;;;;5027916;28;20030;-78
2021/01/03 01:27:15;;;;;;;49.58;26.73;;;1.30;99.90;;;;;;5012596;28;20080;-78
2021/01/03 01:29:41;;;;;;;46.13;25.88;;;1.30;99.90;;;;;;5012660;28;20546;-78
2021/01/03 01:32:07;;;;;;;42.50;24.15;;;1.30;99.90;;;;;;5012557;28;20520;-78
2021/01/03 01:34:32;;;;;;;48.80;26.73;;;1.30;99.90;;;;;;5012268;28;20022;-78
2021/01/03 01:36:58;;;;;;;49.70;26.00;;;1.30;99.90;;;;;;5029144;28;20041;-78
2021/01/03 01:39:23;;;;;;;41.95;24.90;;;1.30;99.90;;;;;;5030136;28;20067;-78
2021/01/03 01:41:49;;;;;;;48.42;25.27;;;1.40;99.90;;;;;;5032070;28;20029;-78
2021/01/03 01:44:14;;;;;;;50.03;27.90;;;1.30;99.90;;;;;;5030517;28;20022;-78
2021/01/03 01:46:50;;;;;;;53.25;26.25;;;1.40;99.90;;;;;;5018671;28;20478;-78
2021/01/03 01:49:16;;;;;;;55.92;27.65;;;1.40;99.90;;;;;;5010985;28;20025;-78
2021/01/03 01:51:46;;;;;;;52.38;27.98;;;1.40;99.90;;;;;;5011031;28;20172;-78
2021/01/03 01:54:25;;;;;;;49.22;27.60;;;1.40;99.90;;;;;;5011990;28;20491;-78
2021/01/03 01:57:24;;;;;;;48.40;25.83;;;1.50;99.90;;;;;;5012225;28;20457;-78
2021/01/03 02:00:07;;;;;;;55.15;27.35;;;1.50;99.90;;;;;;5011000;28;20662;-78
2021/01/03 02:02:50;;;;;;;48.90;26.25;;;1.60;99.90;;;;;;5012118;28;20025;-78
2021/01/03 02:05:18;;;;;;;46.40;24.88;;;1.60;99.90;;;;;;5012265;28;20517;-78
2021/01/03 02:07:44;;;;;;;49.45;27.05;;;1.60;99.90;;;;;;5012016;28;20113;-78
2021/01/03 02:10:15;;;;;;;53.50;27.52;;;1.60;99.90;;;;;;5011916;28;20423;-78
2021/01/03 02:12:45;;;;;;;46.53;24.35;;;1.60;99.90;;;;;;5012058;28;20081;-78
2021/01/03 02:15:43;;;;;;;43.15;24.80;;;1.60;99.90;;;;;;5012393;28;20096;-78
2021/01/03 02:18:11;;;;;;;46.15;24.98;;;1.60;99.90;;;;;;5030377;28;20030;-78
2021/01/03 02:20:59;;;;;;;52.28;26.05;;;1.70;99.90;;;;;;5030400;28;20018;-78
2021/01/03 02:23:51;;;;;;;48.60;24.98;;;1.60;99.90;;;;;;5031740;28;20704;-78
2021/01/03 02:26:21;;;;;;;45.05;24.83;;;1.60;99.90;;;;;;5015875;28;20061;-78
2021/01/03 02:28:47;;;;;;;49.30;25.55;;;1.70;99.90;;;;;;5011564;28;20478;-78
2021/01/03 02:31:16;;;;;;;43.75;25.05;;;1.70;99.90;;;;;;5011854;28;20076;-78
2021/01/03 02:33:46;;;;;;;45.80;25.25;;;1.70;99.90;;;;;;5011738;28;20060;-78
2021/01/03 02:36:21;;;;;;;50.83;25.15;;;1.70;99.90;;;;;;5022618;28;20026;-78
2021/01/03 02:38:54;;;;;;;46.63;24.58;;;1.70;99.90;;;;;;5029601;28;20052;-78
2021/01/03 02:41:20;;;;;;;45.50;24.65;;;1.70;99.90;;;;;;5031179;28;20025;-78
2021/01/03 02:43:45;;;;;;;51.78;25.73;;;1.70;99.90;;;;;;5031269;28;20033;-78
2021/01/03 02:46:11;;;;;;;42.17;23.80;;;1.70;99.90;;;;;;5022864;28;20738;-78
2021/01/03 02:48:37;;;;;;;40.63;23.05;;;1.60;99.90;;;;;;5011781;28;20022;-78
2021/01/03 02:51:03;;;;;;;45.80;24.08;;;1.70;99.90;;;;;;5011306;28;20033;-78
2021/01/03 02:53:28;;;;;;;42.85;23.50;;;1.70;99.90;;;;;;5014136;28;20390;-78
2021/01/03 02:55:54;;;;;;;45.40;24.02;;;1.70;99.90;;;;;;5025848;28;20120;-78
2021/01/03 02:58:19;;;;;;;42.85;22.63;;;1.70;99.90;;;;;;5035137;28;20085;-78
2021/01/03 03:00:45;;;;;;;43.72;22.55;;;1.70;99.90;;;;;;5035108;28;20493;-78
2021/01/03 03:03:11;;;;;;;45.20;23.58;;;1.60;99.90;;;;;;5035067;28;20504;-78
2021/01/03 03:05:37;;;;;;;42.35;21.85;;;1.70;99.90;;;;;;5027305;28;20053;-78
2021/01/03 03:08:03;;;;;;;40.53;20.98;;;1.70;99.90;;;;;;5015134;28;20025;-78
2021/01/03 03:10:29;;;;;;;40.85;22.83;;;1.70;99.90;;;;;;5014987;28;20498;-78
2021/01/03 03:12:57;;;;;;;42.38;23.13;;;1.70;99.90;;;;;;5015164;28;20022;-78
2021/01/03 03:15:26;;;;;;;37.10;20.80;;;1.70;99.90;;;;;;5017078;28;20431;-78
2021/01/03 03:17:51;;;;;;;40.72;22.40;;;1.70;99.90;;;;;;5034723;28;20021;-78
2021/01/03 03:20:18;;;;;;;39.03;21.17;;;1.70;99.90;;;;;;5033496;28;20040;-78
2021/01/03 03:22:45;;;;;;;33.92;20.50;;;1.70;99.90;;;;;;5034694;28;20056;-78
2021/01/03 03:25:12;;;;;;;37.97;21.52;;;1.70;99.90;;;;;;5027544;28;20026;-78
2021/01/03 03:27:38;;;;;;;39.03;20.77;;;1.70;99.90;;;;;;5014920;28;20140;-78
2021/01/03 03:30:10;;;;;;;37.25;20.10;;;1.70;99.90;;;;;;5014829;28;20477;-78
2021/01/03 03:32:35;;;;;;;33.67;20.33;;;1.70;99.90;;;;;;5014593;28;20030;-78
2021/01/03 03:35:03;;;;;;;36.42;19.02;;;1.70;99.90;;;;;;5015228;28;20091;-78
2021/01/03 03:37:28;;;;;;;45.60;19.52;;;1.70;99.90;;;;;;5034293;28;20104;-78
2021/01/03 03:39:54;;;;;;;36.45;19.00;;;1.70;99.90;;;;;;5033983;28;20109;-78
2021/01/03 03:42:19;;;;;;;34.95;18.60;;;1.70;99.90;;;;;;5032069;28;20053;-78
2021/01/03 03:44:45;;;;;;;35.10;17.63;;;1.70;99.90;;;;;;5031681;28;20076;-78
2021/01/03 03:47:11;;;;;;;30.67;18.48;;;1.80;99.90;;;;;;5034010;28;20026;-78
2021/01/03 03:49:36;;;;;;;31.52;17.15;;;1.70;99.90;;;;;;5034216;28;20025;-78
2021/01/03 03:52:03;;;;;;;30.88;17.63;;;1.80;99.90;;;;;;5030794;28;20058;-78
2021/01/03 03:54:29;;;;;;;30.77;16.80;;;1.80;99.90;;;;;;5013880;28;20030;-78
2021/01/03 03:57:04;;;;;;;28.00;17.95;;;1.70;99.90;;;;;;5013055;28;20042;-78
2021/01/03 03:59:30;;;;;;;24.67;14.93;;;1.80;99.90;;;;;;5014180;28;20034;-78
2021/01/03 04:01:56;;;;;;;27.45;15.25;;;1.80;99.90;;;;;;5013930;28;20445;-78
2021/01/03 04:04:23;;;;;;;24.50;16.58;;;1.70;99.90;;;;;;5033433;28;20061;-78
2021/01/03 04:06:49;;;;;;;26.52;15.68;;;1.80;99.90;;;;;;5032447;28;20049;-78
2021/01/03 04:09:16;;;;;;;26.50;16.17;;;1.70;99.90;;;;;;5032612;28;20035;-78
2021/01/03 04:11:44;;;;;;;24.13;14.23;;;1.70;99.90;;;;;;5013490;28;20037;-78
2021/01/03 04:14:11;;;;;;;25.08;13.73;;;1.70;99.90;;;;;;5012422;28;20030;-78
2021/01/03 04:16:45;;;;;;;25.10;14.13;;;1.70;99.90;;;;;;5013966;28;20117;-78
2021/01/03 04:19:10;;;;;;;28.10;14.98;;;1.70;99.90;;;;;;5013779;28;20058;-78
2021/01/03 04:21:36;;;;;;;22.05;13.88;;;1.70;99.90;;;;;;5044174;28;20063;-78
2021/01/03 04:24:01;;;;;;;26.00;14.35;;;1.60;99.90;;;;;;5053220;28;20397;-78
2021/01/03 04:26:27;;;;;;;21.77;13.10;;;1.60;99.90;;;;;;5053109;28;20025;-78
2021/01/03 04:28:52;;;;;;;22.38;12.98;;;1.60;99.90;;;;;;5052194;28;20445;-78
2021/01/03 04:31:19;;;;;;;21.77;13.43;;;1.60;99.90;;;;;;5042451;28;20397;-78
2021/01/03 04:33:45;;;;;;;25.77;13.20;;;1.50;99.90;;;;;;5033098;28;20091;-78
2021/01/03 04:36:16;;;;;;;18.90;12.70;;;1.40;99.90;;;;;;5032004;28;20029;-78
2021/01/03 04:38:42;;;;;;;25.20;13.20;;;1.30;99.90;;;;;;5033253;28;20436;-78
2021/01/03 04:41:11;;;;;;;20.70;13.13;;;1.30;99.90;;;;;;5018889;28;20056;-78
2021/01/03 04:43:37;;;;;;;24.75;13.43;;;1.20;99.90;;;;;;5013440;28;20486;-78
2021/01/03 04:46:10;;;;;;;23.85;13.18;;;1.10;99.90;;;;;;5011931;28;20114;-78
2021/01/03 04:48:37;;;;;;;26.10;15.10;;;1.10;99.90;;;;;;5013408;28;20034;-78
2021/01/03 04:51:25;;;;;;;25.23;14.02;;;1.00;99.90;;;;;;5022501;28;20271;-78
2021/01/03 04:54:16;;;;;;;25.55;13.80;;;0.90;99.90;;;;;;5032753;28;20676;-78
2021/01/03 04:56:41;;;;;;;26.00;14.52;;;0.90;99.90;;;;;;5032510;28;20056;-78
2021/01/03 04:59:21;;;;;;;25.35;14.45;;;0.80;99.90;;;;;;5032860;28;20055;-78
2021/01/03 05:02:04;;;;;;;22.67;14.05;;;0.80;99.90;;;;;;5018890;28;20433;-78
2021/01/03 05:05:13;;;;;;;31.25;14.48;;;0.70;99.90;;;;;;5012870;28;20030;-78
2021/01/03 05:07:43;;;;;;;29.70;16.20;;;0.70;99.90;;;;;;5013058;28;20033;-78
2021/01/03 05:10:22;;;;;;;28.00;16.77;;;0.70;99.90;;;;;;5018770;28;20494;-78
2021/01/03 05:13:12;;;;;;;26.08;15.73;;;0.60;99.90;;;;;;5031504;28;20505;-78
2021/01/03 05:15:37;;;;;;;27.25;16.08;;;0.60;99.90;;;;;;5032144;28;20394;-78
2021/01/03 05:18:05;;;;;;;29.08;15.90;;;0.50;99.90;;;;;;5032485;28;20029;-78
2021/01/03 05:20:31;;;;;;;32.75;18.10;;;0.50;99.90;;;;;;5025983;28;20033;-78
2021/01/03 05:23:17;;;;;;;31.25;17.83;;;0.50;99.90;;;;;;5011477;28;20389;-78
2021/01/03 05:25:44;;;;;;;32.15;17.65;;;0.50;99.90;;;;;;5012341;28;20026;-78
2021/01/03 05:28:23;;;;;;;34.03;18.23;;;0.50;99.90;;;;;;5012643;28;20034;-78
2021/01/03 05:30:49;;;;;;;26.63;16.30;;;0.40;99.90;;;;;;5018041;28;20057;-78
2021/01/03 05:33:26;;;;;;;29.42;17.58;;;0.20;99.90;;;;;;5032283;28;20029;-79
2021/01/03 05:35:52;;;;;;;29.65;16.55;;;0.20;99.90;;;;;;5032069;28;20026;-78
2021/01/03 05:38:36;;;;;;;29.10;16.55;;;0.10;99.90;;;;;;5032002;28;20028;-78
2021/01/03 05:41:18;;;;;;;30.08;16.98;;;0.10;99.90;;;;;;5018702;28;20030;-78
2021/01/03 05:43:56;;;;;;;30.15;17.23;;;0.10;99.90;;;;;;5012241;28;20052;-78
2021/01/03 05:46:33;;;;;;;28.95;15.73;;;0.10;99.90;;;;;;5012849;28;20021;-78
2021/01/03 05:49:02;;;;;;;28.63;16.50;;;0.00;99.90;;;;;;5011102;28;20034;-78
2021/01/03 05:51:30;;;;;;;29.45;16.50;;;0.10;99.90;;;;;;5025959;28;20030;-78
2021/01/03 05:54:02;;;;;;;30.83;16.23;;;0.00;99.90;;;;;;5030065;28;20451;-78
2021/01/03 05:56:28;;;;;;;28.98;17.23;;;0.00;99.90;;;;;;5031674;28;20167;-78
2021/01/03 05:58:55;;;;;;;32.92;17.88;;;0.00;99.90;;;;;;5031866;28;20022;-78
2021/01/03 06:01:30;;;;;;;28.85;17.70;;;-0.10;99.90;;;;;;5021610;28;20022;-78
2021/01/03 06:04:28;;;;;;;40.50;16.65;;;0.00;99.90;;;;;;5010614;28;20511;-78
2021/01/03 06:07:15;;;;;;;31.08;17.38;;;-0.10;99.90;;;;;;5012105;28;20033;-78
2021/01/03 06:09:41;;;;;;;26.90;16.15;;;0.00;99.90;;;;;;5013977;28;20026;-78
2021/01/03 06:12:17;;;;;;;33.13;18.10;;;0.00;99.90;;;;;;5030569;28;20466;-78
2021/01/03 06:14:45;;;;;;;36.40;19.52;;;0.00;99.90;;;;;;5030424;28;20056;-78
2021/01/03 06:17:13;;;;;;;37.08;19.00;;;0.00;99.90;;;;;;5030471;28;20029;-78
2021/01/03 06:19:54;;;;;;;32.92;18.58;;;0.00;99.90;;;;;;5031646;28;20071;-78
2021/01/03 06:22:43;;;;;;;41.33;18.90;;;0.00;99.90;;;;;;5010704;28;20030;-78
2021/01/03 06:25:44;;;;;;;32.78;18.17;;;-0.10;99.90;;;;;;5017952;28;20397;-78
2021/01/03 06:28:11;;;;;;;34.83;18.15;;;-0.10;99.90;;;;;;5034496;28;20021;-78
2021/01/03 06:30:40;;;;;;;37.92;19.90;;;0.00;99.90;;;;;;5029946;28;20383;-78
2021/01/03 06:33:37;;;;;;;32.00;16.95;;;0.00;99.90;;;;;;5015855;28;20113;-78
2021/01/03 06:36:30;;;;;;;32.65;17.63;;;0.00;99.90;;;;;;5014326;28;20053;-78
2021/01/03 06:39:10;;;;;;;31.98;16.75;;;0.00;99.90;;;;;;5015674;28;20053;-78
2021/01/03 06:41:41;;;;;;;35.85;17.42;;;-0.10;99.90;;;;;;5033414;28;20071;-78
2021/01/03 06:44:35;;;;;;;29.67;17.05;;;-0.20;99.90;;;;;;5035294;28;20030;-78
2021/01/03 06:47:08;;;;;;;30.42;17.35;;;-0.20;99.90;;;;;;5035375;28;20397;-78
2021/01/03 06:49:54;;;;;;;31.40;16.75;;;-0.30;99.90;;;;;;5035541;28;20025;-78
2021/01/03 06:52:45;;;;;;;30.95;16.60;;;-0.30;99.90;;;;;;5015587;28;20169;-78
2021/01/03 06:55:16;;;;;;;27.38;16.13;;;-0.30;99.90;;;;;;5021566;28;20029;-78
2021/01/03 06:58:12;;;;;;;31.50;17.65;;;-0.30;99.90;;;;;;5035152;28;20053;-78
2021/01/03 07:00:42;;;;;;;33.92;17.33;;;-0.20;99.90;;;;;;5029629;28;20486;-78
2021/01/03 07:03:24;;;;;;;33.92;17.67;;;-0.20;99.90;;;;;;5015208;28;20418;-78
2021/01/03 07:05:54;;;;;;;30.20;16.70;;;-0.20;99.90;;;;;;5013724;28;20029;-78
2021/01/03 07:08:21;;;;;;;34.28;17.30;;;-0.10;99.90;;;;;;5015286;28;20113;-78
2021/01/03 07:10:47;;;;;;;34.30;18.33;;;-0.10;99.90;;;;;;5026102;28;20025;-78
2021/01/03 07:13:25;;;;;;;32.78;17.02;;;0.00;99.90;;;;;;5034961;28;20017;-78
2021/01/03 07:15:51;;;;;;;28.63;16.23;;;0.10;99.90;;;;;;5034667;28;20022;-78
2021/01/03 07:18:26;;;;;;;29.52;14.80;;;0.10;99.90;;;;;;5034682;28;20113;-78
2021/01/03 07:21:03;;;;;;;24.10;14.43;;;0.10;99.90;;;;;;5033534;28;20043;-78
2021/01/03 07:23:44;;;;;;;24.80;14.75;;;0.10;99.90;;;;;;5034950;28;20421;-78
2021/01/03 07:26:30;;;;;;;23.88;13.68;;;0.00;99.90;;;;;;5047440;28;20036;-78
2021/01/03 07:29:15;;;;;;;31.60;15.48;;;0.00;99.90;;;;;;5054640;28;20175;-78
2021/01/03 07:31:41;;;;;;;25.48;15.27;;;0.00;99.90;;;;;;5054590;28;20078;-78
2021/01/03 07:34:10;;;;;;;24.23;14.38;;;-0.10;99.90;;;;;;5054225;28;20025;-78
2021/01/03 07:36:47;;;;;;;24.88;15.68;;;-0.10;99.90;;;;;;5037954;28;20037;-78
2021/01/03 07:39:33;;;;;;;24.50;14.65;;;0.00;99.90;;;;;;5034335;28;20062;-78
2021/01/03 07:42:19;;;;;;;26.05;15.40;;;-0.10;99.90;;;;;;5034433;28;20021;-78
2021/01/03 07:44:45;;;;;;;21.70;13.55;;;-0.10;99.90;;;;;;5034132;28;20044;-78
2021/01/03 07:47:11;;;;;;;23.73;13.63;;;-0.10;99.90;;;;;;5017188;28;20491;-78
2021/01/03 07:49:40;;;;;;;22.73;13.23;;;-0.10;99.90;;;;;;5014383;28;20040;-78
2021/01/03 07:52:18;;;;;;;22.45;13.10;;;-0.10;99.90;;;;;;5013170;28;20026;-78
2021/01/03 07:54:51;;;;;;;23.73;13.75;;;-0.10;99.90;;;;;;5016375;28;20052;-78
2021/01/03 07:57:18;;;;;;;22.60;13.25;;;-0.10;99.90;;;;;;5034140;28;20072;-78
2021/01/03 07:59:46;;;;;;;20.73;13.77;;;-0.10;99.90;;;;;;5033970;28;20056;-78
2021/01/03 08:02:15;;;;;;;25.50;15.25;;;-0.10;99.90;;;;;;5031265;28;20041;-78
2021/01/03 08:04:40;;;;;;;22.13;12.57;;;0.00;99.90;;;;;;5032272;28;20026;-78
2021/01/03 08:07:10;;;;;;;21.50;12.95;;;0.00;99.90;;;;;;5013328;28;20116;-78
2021/01/03 08:09:36;;;;;;;24.45;13.38;;;0.00;99.90;;;;;;5013892;28;20044;-78
2021/01/03 08:12:07;;;;;;;23.40;13.45;;;0.20;99.90;;;;;;5012537;28;20429;-78
2021/01/03 08:14:36;;;;;;;25.10;13.38;;;0.30;99.90;;;;;;5013455;28;20053;-78
2021/01/03 08:17:02;;;;;;;19.40;12.25;;;0.40;99.90;;;;;;5027838;28;20551;-78
2021/01/03 08:19:29;;;;;;;19.33;12.38;;;0.60;99.90;;;;;;5033495;28;20113;-78
2021/01/03 08:21:57;;;;;;;19.98;12.57;;;0.70;99.90;;;;;;5033529;28;20033;-78
2021/01/03 08:24:26;;;;;;;18.05;11.63;;;0.80;99.90;;;;;;5032974;28;20032;-78
2021/01/03 08:27:16;;;;;;;20.95;11.07;;;0.90;99.90;;;;;;5032172;28;20038;-78
2021/01/03 08:30:00;;;;;;;18.65;11.05;;;1.00;99.90;;;;;;5032844;28;20116;-78
2021/01/03 08:32:29;;;;;;;17.33;10.52;;;1.00;99.90;;;;;;5033787;28;20033;-78
2021/01/03 08:35:03;;;;;;;18.48;10.70;;;1.00;99.90;;;;;;5032432;28;20029;-78
2021/01/03 08:37:35;;;;;;;17.42;10.63;;;1.10;99.90;;;;;;5033145;28;20029;-78
2021/01/03 08:40:29;;;;;;;15.98;10.15;;;1.10;99.90;;;;;;5032797;28;20037;-78
2021/01/03 08:43:27;;;;;;;15.07;9.50;;;1.20;99.90;;;;;;5033364;28;20397;-78
2021/01/03 08:45:59;;;;;;;15.35;9.65;;;1.10;99.90;;;;;;5017437;28;20037;-78
2021/01/03 08:48:25;;;;;;;12.13;8.00;;;1.10;99.90;;;;;;5013600;28;20105;-76
2021/01/03 08:51:04;;;;;;;13.77;8.73;;;1.10;99.90;;;;;;5032621;28;20082;-76
2021/01/03 08:53:30;;;;;;;13.82;8.32;;;1.10;99.90;;;;;;5032878;28;20022;-77
2021/01/03 08:56:24;;;;;;;11.82;8.48;;;1.10;99.90;;;;;;5031725;28;20041;-76
2021/01/03 08:58:49;;;;;;;13.93;8.18;;;1.20;99.90;;;;;;5031915;28;20033;-76
2021/01/03 09:01:25;;;;;;;12.65;8.13;;;1.30;99.90;;;;;;5032662;28;20043;-76
2021/01/03 09:03:53;;;;;;;11.85;7.35;;;1.30;99.90;;;;;;5032446;28;20051;-77
2021/01/03 09:06:19;;;;;;;14.45;8.07;;;1.40;99.90;;;;;;5031958;28;20026;-78
2021/01/03 09:08:45;;;;;;;11.43;7.20;;;1.40;99.90;;;;;;5032277;28;20088;-78
2021/01/03 09:11:32;;;;;;;12.52;7.10;;;1.50;99.90;;;;;;5032296;28;20493;-78
2021/01/03 09:14:21;;;;;;;14.52;7.68;;;1.50;99.90;;;;;;5032256;28;20104;-77
2021/01/03 09:17:07;;;;;;;12.52;7.55;;;1.60;99.90;;;;;;5018976;28;20168;-78
2021/01/03 09:19:53;;;;;;;13.68;8.40;;;1.60;99.90;;;;;;5012622;28;20053;-78
2021/01/03 09:22:29;;;;;;;11.93;8.10;;;1.60;99.90;;;;;;5011514;28;20049;-79
2021/01/03 09:25:04;;;;;;;11.73;7.15;;;1.60;99.90;;;;;;5015767;28;20032;-79
2021/01/03 09:27:32;;;;;;;11.38;6.78;;;1.60;99.90;;;;;;5032284;28;20071;-78
2021/01/03 09:30:20;;;;;;;13.23;8.45;;;1.70;99.90;;;;;;5032183;28;20497;-78
2021/01/03 09:32:51;;;;;;;10.57;6.88;;;1.70;99.90;;;;;;5032310;28;20123;-78
2021/01/03 09:35:24;;;;;;;12.27;6.72;;;1.70;99.90;;;;;;5026478;28;20068;-79
2021/01/03 09:38:18;;;;;;;12.07;6.97;;;1.80;99.90;;;;;;5012702;28;20455;-78
2021/01/03 09:41:15;;;;;;;11.87;6.87;;;1.80;99.90;;;;;;5012307;28;20084;-78
2021/01/03 09:44:04;;;;;;;12.27;7.35;;;1.80;99.90;;;;;;5010149;28;20034;-78
2021/01/03 09:46:32;;;;;;;11.32;7.75;;;1.80;99.90;;;;;;5023092;28;20051;-79
2021/01/03 09:49:20;;;;;;;10.93;6.78;;;1.70;99.90;;;;;;5031868;28;20477;-79
2021/01/03 09:51:59;;;;;;;10.73;7.22;;;1.80;99.90;;;;;;5032074;28;20044;-79
2021/01/03 09:54:33;;;;;;;10.95;6.28;;;1.70;99.90;;;;;;5031268;28;20029;-79
2021/01/03 09:56:58;;;;;;;11.73;6.85;;;1.80;99.90;;;;;;5011304;28;20029;-79
2021/01/03 09:59:24;;;;;;;12.70;6.95;;;1.90;99.90;;;;;;5025101;28;20478;-79
2021/01/03 10:01:51;;;;;;;11.50;7.30;;;1.90;99.90;;;;;;5031740;28;20506;-80
2021/01/03 10:04:28;;;;;;;11.82;6.07;;;2.00;99.90;;;;;;5031634;28;20045;-79
2021/01/03 10:07:09;;;;;;;12.57;6.72;;;2.00;99.90;;;;;;5014264;28;20020;-79
2021/01/03 10:09:35;;;;;;;10.68;6.60;;;2.00;99.90;;;;;;5012052;28;20598;-78
2021/01/03 10:12:26;;;;;;;8.90;5.88;;;2.10;99.90;;;;;;5010695;28;20034;-79
2021/01/03 10:15:08;;;;;;;10.55;7.18;;;2.20;99.90;;;;;;5010606;28;20029;-79
2021/01/03 10:17:34;;;;;;;12.32;6.55;;;2.30;99.90;;;;;;5030184;28;20032;-79
2021/01/03 10:20:00;;;;;;;14.60;6.80;;;2.30;99.90;;;;;;5031567;28;20029;-79
2021/01/03 10:22:39;;;;;;;10.38;6.75;;;2.30;99.90;;;;;;5031691;28;20104;-79
2021/01/03 10:25:07;;;;;;;10.18;6.43;;;2.40;99.90;;;;;;5031425;28;20143;-78
2021/01/03 10:27:33;;;;;;;12.60;6.80;;;2.60;99.90;;;;;;5031616;28;20022;-78
2021/01/03 10:29:58;;;;;;;10.27;5.65;;;2.70;99.90;;;;;;5031463;28;20040;-78
2021/01/03 10:32:24;;;;;;;9.30;5.43;;;2.80;99.90;;;;;;5031484;28;20033;-78
2021/01/03 10:34:50;;;;;;;11.20;6.15;;;2.70;99.90;;;;;;5031010;28;20034;-78
2021/01/03 10:37:15;;;;;;;8.27;5.72;;;2.70;99.90;;;;;;5010537;28;20030;-78
2021/01/03 10:39:41;;;;;;;9.48;5.55;;;2.70;99.90;;;;;;5011609;28;20088;-78
2021/01/03 10:42:08;;;;;;;9.38;5.38;;;2.60;99.90;;;;;;5011818;28;20018;-78
2021/01/03 10:44:33;;;;;;;11.40;6.10;;;2.60;99.90;;;;;;5011359;28;20022;-77
2021/01/03 10:46:59;;;;;;;8.50;5.15;;;2.60;99.90;;;;;;5026021;28;20488;-78
2021/01/03 10:49:26;;;;;;;12.50;5.93;;;2.60;99.90;;;;;;5030160;28;20033;-78
2021/01/03 10:51:52;;;;;;;8.77;4.78;;;2.60;99.90;;;;;;5030326;28;20032;-79
2021/01/03 10:54:23;;;;;;;10.27;6.88;;;2.70;99.90;;;;;;5029547;28;20030;-79
2021/01/03 10:56:52;;;;;;;10.88;5.97;;;2.70;99.90;;;;;;5030676;28;20033;-79
2021/01/03 10:59:18;;;;;;;8.90;5.30;;;2.70;99.90;;;;;;5029734;28;20087;-79
2021/01/03 11:01:45;;;;;;;9.30;6.60;;;2.70;99.90;;;;;;5031323;28;20480;-78
2021/01/03 11:04:11;;;;;;;11.25;6.00;;;2.70;99.90;;;;;;5030292;28;20474;-79
2021/01/03 11:06:51;;;;;;;11.65;5.85;;;2.70;99.90;;;;;;5015996;28;20505;-78
2021/01/03 11:09:29;;;;;;;9.57;5.43;;;2.70;99.90;;;;;;5011062;28;20088;-79
2021/01/03 11:12:06;;;;;;;11.05;6.43;;;2.70;99.90;;;;;;5031267;28;20041;-79
2021/01/03 11:14:32;;;;;;;9.30;5.88;;;2.80;99.90;;;;;;5032843;28;20033;-79
2021/01/03 11:16:58;;;;;;;8.20;5.93;;;2.80;99.90;;;;;;5019465;28;20037;-79
2021/01/03 11:19:24;;;;;;;10.48;5.78;;;2.80;99.90;;;;;;5013283;28;20037;-78
2021/01/03 11:21:57;;;;;;;9.13;5.65;;;2.80;99.90;;;;;;5014655;28;20033;-78
2021/01/03 11:24:24;;;;;;;9.80;5.50;;;2.90;99.90;;;;;;5014286;28;20029;-78
2021/01/03 11:26:50;;;;;;;8.18;5.78;;;2.90;99.90;;;;;;5033787;28;20494;-78
2021/01/03 11:29:19;;;;;;;11.80;6.30;;;3.00;99.90;;;;;;5033067;28;20243;-78
2021/01/03 11:31:48;;;;;;;9.05;4.97;;;3.00;99.90;;;;;;5033100;28;20028;-78
2021/01/03 11:34:16;;;;;;;7.18;5.00;;;3.10;99.90;;;;;;5032583;28;20036;-78
2021/01/03 11:36:51;;;;;;;9.85;6.35;;;3.10;99.90;;;;;;5018121;28;20030;-78
2021/01/03 11:39:17;;;;;;;8.10;5.40;;;3.10;99.90;;;;;;5014364;28;20056;-78
2021/01/03 11:41:45;;;;;;;8.52;5.40;;;3.20;99.90;;;;;;5014235;28;20113;-78
2021/01/03 11:44:11;;;;;;;7.15;5.03;;;3.10;99.90;;;;;;5013754;28;20044;-79
2021/01/03 11:46:36;;;;;;;10.38;5.68;;;3.20;99.90;;;;;;5025860;28;20401;-78
2021/01/03 11:49:02;;;;;;;8.38;4.63;;;3.30;99.90;;;;;;5033949;28;20025;-78
2021/01/03 11:51:28;;;;;;;8.80;5.50;;;3.30;99.90;;;;;;5032647;28;20034;-78
2021/01/03 11:53:53;;;;;;;6.88;4.70;;;3.30;99.90;;;;;;5033223;28;20029;-78
2021/01/03 11:56:20;;;;;;;8.13;4.88;;;3.40;99.90;;;;;;5018281;28;20041;-78
2021/01/03 11:58:46;;;;;;;6.15;4.53;;;3.40;99.90;;;;;;5013958;28;20057;-78
2021/01/03 12:01:16;;;;;;;8.25;5.00;;;3.40;99.90;;;;;;5012587;28;20026;-78
2021/01/03 12:03:42;;;;;;;9.07;5.07;;;3.30;99.90;;;;;;5012236;28;20079;-78
2021/01/03 12:06:07;;;;;;;8.27;4.93;;;3.40;99.90;;;;;;5022953;28;20116;-78
2021/01/03 12:08:33;;;;;;;8.50;4.72;;;3.30;99.90;;;;;;5033706;28;20155;-78
2021/01/03 12:10:59;;;;;;;6.38;4.35;;;3.30;99.90;;;;;;5032997;28;20034;-78
2021/01/03 12:13:24;;;;;;;7.22;4.45;;;3.30;99.90;;;;;;5032034;28;20054;-79
2021/01/03 12:15:50;;;;;;;9.18;5.35;;;3.30;99.90;;;;;;5026319;28;20033;-78
2021/01/03 12:18:15;;;;;;;9.75;5.43;;;3.40;99.90;;;;;;5012133;28;20493;-78
2021/01/03 12:20:41;;;;;;;9.65;4.93;;;3.40;99.90;;;;;;5013522;28;20077;-78
2021/01/03 12:23:07;;;;;;;6.57;4.78;;;3.50;99.90;;;;;;5011892;28;20667;-78
2021/01/03 12:25:33;;;;;;;10.20;5.03;;;3.50;99.90;;;;;;5020642;28;20092;-78
2021/01/03 12:28:00;;;;;;;5.43;3.65;;;3.50;99.90;;;;;;5033053;28;20026;-78
2021/01/03 12:30:26;;;;;;;5.93;3.95;;;3.50;99.90;;;;;;5033249;28;20099;-79
2021/01/03 12:32:52;;;;;;;9.90;4.60;;;3.60;99.90;;;;;;5031845;28;20029;-78
2021/01/03 12:35:18;;;;;;;5.97;4.25;;;3.70;99.90;;;;;;5028609;28;20513;-78
2021/01/03 12:37:43;;;;;;;9.98;4.05;;;3.70;99.90;;;;;;5013273;28;20108;-78
2021/01/03 12:40:10;;;;;;;8.25;3.97;;;3.90;99.90;;;;;;5012986;28;20630;-78
2021/01/03 12:42:37;;;;;;;4.88;3.50;;;3.90;99.90;;;;;;5012998;28;20506;-78
2021/01/03 12:45:08;;;;;;;6.60;3.45;;;3.90;99.90;;;;;;5011630;28;20398;-79
2021/01/03 12:47:33;;;;;;;5.13;3.25;;;3.80;99.90;;;;;;5032218;28;20026;-78
2021/01/03 12:49:59;;;;;;;5.95;3.65;;;3.80;99.90;;;;;;5016565;28;20376;-79
2021/01/03 12:52:24;;;;;;;5.93;4.10;;;3.80;99.90;;;;;;5012753;28;20026;-78
2021/01/03 12:54:50;;;;;;;6.15;3.50;;;3.90;99.90;;;;;;5015354;28;20045;-78
2021/01/03 12:57:16;;;;;;;6.57;4.22;;;3.80;99.90;;;;;;5031521;28;20040;-78
2021/01/03 12:59:41;;;;;;;5.28;3.60;;;3.80;99.90;;;;;;5032874;28;20045;-78
2021/01/03 13:02:07;;;;;;;7.20;3.70;;;3.70;99.90;;;;;;5032425;28;20101;-78